Time,TemperatureF,DewpointF,PressureIn,WindDirection,WindDirectionDegrees,WindSpeedMPH,WindSpeedGustMPH,Humidity,HourlyPrecipIn,Conditions,Clouds,dailyrainin,SolarRadiationWatts/m^2,SoftwareType,DateUTC
2013-07-09 00:02:00,62.0,39.0,-100.00,SSE,155,1.0,5.0,42,0.00,,,0.00,1.000000,,2013-07-09 07:02:00,
2013-07-09 00:11:00,62.0,39.0,-100.00,SSE,155,1.0,5.0,42,0.00,,,0.00,1.000000,,2013-07-09 07:11:00,
2013-07-09 00:22:00,62.0,39.0,-100.00,SSE,155,1.0,5.0,42,0.00,,,0.00,1.000000,,2013-07-09 07:22:00,
2013-07-09 00:53:00,61.0,41.0,-100.00,ESE,119,2.0,4.0,48,0.00,,,0.00,1.000000,,2013-07-09 07:53:00,
2013-07-09 01:01:00,61.0,41.0,-100.00,ESE,119,2.0,4.0,48,0.00,,,0.00,1.000000,,2013-07-09 08:01:00,
2013-07-09 01:52:00,59.0,42.0,-100.00,ENE,78,0.0,3.0,54,-99.99,,,0.00,1.000000,,2013-07-09 08:52:00,
2013-07-09 02:02:00,59.0,42.0,-100.00,ENE,78,0.0,3.0,54,-99.99,,,0.00,1.000000,,2013-07-09 09:02:00,
2013-07-09 08:22:00,59.0,43.0,-100.00,SSW,212,5.0,8.0,56,-99.99,,,-99.99,99.000000,,2013-07-09 15:22:00,
2013-07-09 09:01:00,64.0,45.0,-100.00,SW,224,4.0,9.0,51,0.00,,,0.00,351.000000,,2013-07-09 16:01:00,
2013-07-09 09:11:00,64.0,45.0,-100.00,SW,224,4.0,9.0,51,0.00,,,0.00,351.000000,,2013-07-09 16:11:00,
2013-07-09 09:22:00,64.0,45.0,-100.00,SW,224,4.0,9.0,51,0.00,,,0.00,351.000000,,2013-07-09 16:22:00,
2013-07-09 09:53:00,72.0,46.0,-100.00,SSW,208,3.0,7.0,39,0.00,,,0.00,527.000000,,2013-07-09 16:53:00,
2013-07-09 10:02:00,72.0,46.0,-100.00,SSW,208,3.0,7.0,39,0.00,,,0.00,527.000000,,2013-07-09 17:02:00,
2013-07-09 10:11:00,72.0,46.0,-100.00,SSW,208,3.0,7.0,39,0.00,,,0.00,527.000000,,2013-07-09 17:11:00,
2013-07-09 10:22:00,72.0,46.0,-100.00,SSW,208,3.0,7.0,39,0.00,,,0.00,527.000000,,2013-07-09 17:22:00,
2013-07-09 10:53:00,77.0,45.0,-100.00,SSW,213,3.0,6.0,32,0.00,,,0.00,690.000000,,2013-07-09 17:53:00,
2013-07-09 11:01:00,77.0,45.0,-100.00,SSW,213,3.0,6.0,32,0.00,,,0.00,690.000000,,2013-07-09 18:01:00,
2013-07-09 11:11:00,77.0,45.0,-100.00,SSW,213,3.0,6.0,32,0.00,,,0.00,690.000000,,2013-07-09 18:11:00,
2013-07-09 11:22:00,77.0,45.0,-100.00,SSW,213,3.0,6.0,32,0.00,,,0.00,690.000000,,2013-07-09 18:22:00,
2013-07-09 11:43:00,84.0,44.0,-100.00,SW,231,4.0,8.0,25,0.00,,,0.00,823.000000,,2013-07-09 18:43:00,
2013-07-09 11:52:00,84.0,44.0,-100.00,SW,231,4.0,8.0,25,0.00,,,0.00,823.000000,,2013-07-09 18:52:00,
2013-07-09 12:01:00,84.0,44.0,-100.00,SW,231,4.0,8.0,25,0.00,,,0.00,823.000000,,2013-07-09 19:01:00,
2013-07-09 12:11:00,84.0,44.0,-100.00,SW,231,4.0,8.0,25,0.00,,,0.00,823.000000,,2013-07-09 19:11:00,
2013-07-09 12:22:00,84.0,44.0,-100.00,SW,231,4.0,8.0,25,0.00,,,0.00,823.000000,,2013-07-09 19:22:00,
2013-07-09 12:42:00,88.0,43.0,-100.00,South,189,5.0,10.0,21,0.00,,,0.00,909.000000,,2013-07-09 19:42:00,
2013-07-09 12:52:00,88.0,43.0,-100.00,South,189,5.0,10.0,21,0.00,,,0.00,909.000000,,2013-07-09 19:52:00,
2013-07-09 13:01:00,88.0,43.0,-100.00,South,189,5.0,10.0,21,0.00,,,0.00,909.000000,,2013-07-09 20:01:00,
2013-07-09 13:11:00,88.0,43.0,-100.00,South,189,5.0,10.0,21,0.00,,,0.00,909.000000,,2013-07-09 20:11:00,
2013-07-09 13:21:00,88.0,43.0,-100.00,South,189,5.0,10.0,21,0.00,,,0.00,909.000000,,2013-07-09 20:21:00,
2013-07-09 14:01:00,89.0,34.0,-100.00,SSW,193,5.0,11.0,14,0.00,,,-99.99,953.000000,,2013-07-09 21:01:00,
2013-07-09 14:11:00,89.0,34.0,-100.00,SSW,193,5.0,11.0,14,0.00,,,-99.99,953.000000,,2013-07-09 21:11:00,
2013-07-09 14:22:00,89.0,34.0,-100.00,SSW,193,5.0,11.0,14,0.00,,,-99.99,953.000000,,2013-07-09 21:22:00,
2013-07-09 15:22:00,95.0,34.0,-100.00,WSW,243,4.0,11.0,12,0.00,,,0.00,954.000000,,2013-07-09 22:22:00,
2013-07-09 15:53:00,94.0,31.0,-100.00,SW,228,6.0,14.0,11,0.00,,,0.00,905.000000,,2013-07-09 22:53:00,
2013-07-09 16:01:00,94.0,31.0,-100.00,SW,228,6.0,14.0,11,0.00,,,0.00,905.000000,,2013-07-09 23:01:00,
2013-07-09 16:11:00,94.0,31.0,-100.00,SW,228,6.0,14.0,11,0.00,,,0.00,905.000000,,2013-07-09 23:11:00,
2013-07-09 16:22:00,94.0,31.0,-100.00,SW,228,6.0,14.0,11,0.00,,,0.00,905.000000,,2013-07-09 23:22:00,
2013-07-09 16:53:00,94.0,31.0,-100.00,WSW,248,4.0,12.0,11,0.00,,,-99.99,800.000000,,2013-07-09 23:53:00,
2013-07-09 17:01:00,94.0,31.0,-100.00,WSW,248,4.0,12.0,11,0.00,,,-99.99,800.000000,,2013-07-10 00:01:00,
2013-07-09 17:11:00,94.0,31.0,-100.00,WSW,248,4.0,12.0,11,0.00,,,-99.99,800.000000,,2013-07-10 00:11:00,
2013-07-09 17:22:00,94.0,31.0,-100.00,WSW,248,4.0,12.0,11,0.00,,,-99.99,800.000000,,2013-07-10 00:22:00,
2013-07-09 17:52:00,94.0,34.0,-100.00,West,261,3.0,9.0,12,0.00,,,0.00,653.000000,,2013-07-10 00:52:00,
2013-07-09 18:01:00,94.0,34.0,-100.00,West,261,3.0,9.0,12,0.00,,,0.00,653.000000,,2013-07-10 01:01:00,
2013-07-09 18:11:00,94.0,34.0,-100.00,West,261,3.0,9.0,12,0.00,,,0.00,653.000000,,2013-07-10 01:11:00,
2013-07-09 18:21:00,94.0,34.0,-100.00,West,261,3.0,9.0,12,0.00,,,0.00,653.000000,,2013-07-10 01:21:00,
2013-07-09 18:53:00,88.0,41.0,-100.00,NNW,348,5.0,11.0,19,0.00,,,0.00,471.000000,,2013-07-10 01:53:00,
2013-07-09 19:01:00,88.0,41.0,-100.00,NNW,348,5.0,11.0,19,0.00,,,0.00,471.000000,,2013-07-10 02:01:00,
2013-07-09 19:11:00,88.0,41.0,-100.00,NNW,348,5.0,11.0,19,0.00,,,0.00,471.000000,,2013-07-10 02:11:00,
2013-07-09 19:22:00,88.0,41.0,-100.00,NNW,348,5.0,11.0,19,0.00,,,0.00,471.000000,,2013-07-10 02:22:00,
2013-07-09 19:53:00,82.0,47.0,-100.00,NNW,344,5.0,14.0,29,0.00,,,0.00,265.000000,,2013-07-10 02:53:00,
2013-07-09 20:01:00,82.0,47.0,-100.00,NNW,344,5.0,14.0,29,0.00,,,0.00,265.000000,,2013-07-10 03:01:00,
2013-07-09 20:11:00,82.0,47.0,-100.00,NNW,344,5.0,14.0,29,0.00,,,0.00,265.000000,,2013-07-10 03:11:00,
2013-07-09 20:22:00,82.0,47.0,-100.00,NNW,344,5.0,14.0,29,0.00,,,0.00,265.000000,,2013-07-10 03:22:00,
2013-07-09 20:52:00,76.0,49.0,-100.00,North,8,2.0,10.0,38,0.00,,,0.00,32.000000,,2013-07-10 03:52:00,
2013-07-09 21:01:00,76.0,49.0,-100.00,North,8,2.0,10.0,38,0.00,,,0.00,32.000000,,2013-07-10 04:01:00,
2013-07-09 21:11:00,76.0,49.0,-100.00,North,8,2.0,10.0,38,0.00,,,0.00,32.000000,,2013-07-10 04:11:00,
2013-07-09 21:22:00,76.0,49.0,-100.00,North,8,2.0,10.0,38,0.00,,,0.00,32.000000,,2013-07-10 04:22:00,
2013-07-09 21:52:00,73.0,49.0,-100.00,WSW,248,1.0,4.0,43,0.00,,,0.00,4.000000,,2013-07-10 04:52:00,
2013-07-09 22:02:00,73.0,49.0,-100.00,WSW,248,1.0,4.0,43,0.00,,,0.00,4.000000,,2013-07-10 05:02:00,
2013-07-09 22:11:00,73.0,49.0,-100.00,WSW,248,1.0,4.0,43,0.00,,,0.00,4.000000,,2013-07-10 05:11:00,
2013-07-09 22:22:00,73.0,49.0,-100.00,WSW,248,1.0,4.0,43,0.00,,,0.00,4.000000,,2013-07-10 05:22:00,
2013-07-09 22:53:00,71.0,50.0,-100.00,NE,46,1.0,3.0,47,0.00,,,0.00,1.000000,,2013-07-10 05:53:00,
2013-07-09 23:01:00,71.0,50.0,-100.00,NE,46,1.0,3.0,47,0.00,,,0.00,1.000000,,2013-07-10 06:01:00,
2013-07-09 23:11:00,71.0,50.0,-100.00,NE,46,1.0,3.0,47,0.00,,,0.00,1.000000,,2013-07-10 06:11:00,
2013-07-09 23:21:00,71.0,50.0,-100.00,NE,46,1.0,3.0,47,0.00,,,0.00,1.000000,,2013-07-10 06:21:00,
2013-07-09 23:52:00,67.0,48.0,-100.00,ENE,57,1.0,3.0,50,0.00,,,0.00,1.000000,,2013-07-10 06:52:00,